Thunder radar more information blitzortung!


Löydät sääaseman tiedot myös:

European Weather Network

Finland Weather Exchange

Weather Underground

AWEKAS



Weather Underground säähistoriasivu

Päivittäin yhteenveto Maaliskuu 4, 2017 Yksiköt:  Metriset    Englantilaiset   Molemmat
« Edellinen Päivä
Seuraava Päivä »
Päivittäin Viikoittain Kuukausittain Vuosittain Mukautettu
  Korkea: Matala: Keskiarvo:
Lämpötila: -17.8 °C -21.7 °C -20.2 °C
Kastepiste: -17.8 °C -22.2 °C -20.9 °C
Kosteus: Humidity % 84 % 90 %
Tuulen nopeus: 0 km/h 0 km/h 0.5 km/h
Tuulenpuuska: 0 km/h - -
Tuuli:- - WNW
Ilmanpaine: 0 hPa 33914.2 hPa -
Sade: 0 mm    
Historical Graphs
 
 
Taulukkotiedot Maaliskuu 4, 2017
Aika Lämpötila Kastepiste Ilmanpaine Tuuli Tuulen nopeus Tuulenpuuska Kosteus Sademäärä (tunneittain)
-17.8 °C -17.8 °C 0 hPa Calm     Humidity % 0 mm
00:00 -21.5 °C -22 °C 33914.2 hPa Calm   2.6 km/h 93 % 0 mm
00:15 -21.5 °C -22.1 °C 33914.2 hPa Calm   5.1 km/h 93 % 0 mm
00:30 -21.5 °C -22.1 °C 33914.2 hPa Calm   2.6 km/h 93 % 0 mm
00:45 -21.6 °C -22.1 °C 33924.3 hPa WNW 2.6 km/h 7.7 km/h 93 % 0 mm
01:00 -21.6 °C -22.2 °C 33924.3 hPa Calm   2.6 km/h 93 % 0 mm
01:15 -21.6 °C -22.2 °C 33937.9 hPa Calm   5.1 km/h 93 % 0 mm
01:30 -21.7 °C -22.2 °C 33937.9 hPa Calm   7.7 km/h 93 % 0 mm
01:45 -21.7 °C -22.2 °C 33948 hPa Calm   5.1 km/h 94 % 0 mm
02:00 -21.7 °C -21.7 °C 33948 hPa Calm   10.3 km/h 100 % 0 mm
02:15 -21.6 °C -22.1 °C 33948 hPa Calm   5.1 km/h 94 % 0 mm
02:30 -21.6 °C -22 °C 33948 hPa Calm     94 % 0 mm
02:45 -21.6 °C -22 °C 33948 hPa Calm   7.7 km/h 94 % 0 mm
03:00 -21.5 °C -21.9 °C 33958.2 hPa WNW 2.6 km/h 7.7 km/h 94 % 0 mm
03:15 -21.4 °C -21.9 °C 33958.2 hPa Calm     94 % 0 mm
03:30 -21.3 °C -21.7 °C 33958.2 hPa Calm   10.3 km/h 94 % 0 mm
03:45 -21.2 °C -21.6 °C 33958.2 hPa Calm   2.6 km/h 94 % 0 mm
04:00 -21.1 °C -21.6 °C 33971.7 hPa Calm     94 % 0 mm
04:15 -21.1 °C -21.6 °C 33981.9 hPa Calm     94 % 0 mm
04:30 -21 °C -21.4 °C 33981.9 hPa Calm   2.6 km/h 94 % 0 mm
04:45 -21 °C -21.4 °C 33992.1 hPa Calm     94 % 0 mm
05:00 -20.9 °C -21.4 °C 33992.1 hPa Calm     94 % 0 mm
05:15 -20.9 °C -21.3 °C 34005.6 hPa Calm     94 % 0 mm
05:30 -20.9 °C -21.4 °C 34005.6 hPa Calm   5.1 km/h 93 % 0 mm
05:45 -20.9 °C -21.4 °C 34005.6 hPa Calm     93 % 0 mm
06:00 -20.9 °C -21.4 °C 34005.6 hPa Calm     93 % 0 mm
06:15 -20.9 °C -21.4 °C 34005.6 hPa Calm     93 % 0 mm
06:30 -20.9 °C -21.4 °C 34015.8 hPa Calm     93 % 0 mm
06:45 -20.9 °C -21.4 °C 34015.8 hPa Calm     93 % 0 mm
07:00 -20.9 °C -21.4 °C 34015.8 hPa Calm     93 % 0 mm
07:15 -20.8 °C -21.3 °C 34015.8 hPa Calm     94 % 0 mm
07:30 -20.8 °C -21.3 °C 34015.8 hPa Calm     94 % 0 mm
07:45 -20.7 °C -21.2 °C 34029.3 hPa Calm     94 % 0 mm
08:00 -20.7 °C -21.1 °C 34039.5 hPa Calm     94 % 0 mm
08:15 -20.6 °C -21 °C 34039.5 hPa Calm     94 % 0 mm
08:30 -20.4 °C -20.9 °C 34049.6 hPa Calm   2.6 km/h 94 % 0 mm
08:45 -20.3 °C -20.8 °C 34049.6 hPa Calm   5.1 km/h 94 % 0 mm
09:00 -20.2 °C -20.7 °C 34049.6 hPa Calm   2.6 km/h 94 % 0 mm
09:15 -20.2 °C -20.6 °C 34063.2 hPa Calm   10.3 km/h 94 % 0 mm
09:30 -20.1 °C -20.6 °C 34063.2 hPa Calm   5.1 km/h 94 % 0 mm
09:45 -20.1 °C -20.6 °C 34073.3 hPa Calm   2.6 km/h 93 % 0 mm
10:00 -19.9 °C -20.5 °C 34073.3 hPa Calm   2.6 km/h 93 % 0 mm
10:15 -19.9 °C -20.5 °C 34073.3 hPa WNW 2.6 km/h 7.7 km/h 92 % 0 mm
10:30 -19.8 °C -20.3 °C 34073.3 hPa WNW 2.6 km/h 12.9 km/h 93 % 0 mm
10:45 -19.6 °C -20.2 °C 34086.9 hPa Calm   12.9 km/h 92 % 0 mm
11:00 -19.6 °C -20.2 °C 34097 hPa WNW 5.1 km/h 18.2 km/h 92 % 0 mm
11:15 -19.4 °C -20.1 °C 34097 hPa Calm   5.1 km/h 92 % 0 mm
11:30 -19.4 °C -20.1 °C 34097 hPa NW 2.6 km/h 15.6 km/h 91 % 0 mm
11:45 -19.3 °C -20.1 °C 34097 hPa NW 2.6 km/h 10.3 km/h 89 % 0 mm
12:00 -19.2 °C -20.1 °C 34107.2 hPa NW 5.1 km/h 12.9 km/h 89 % 0 mm
12:15 -19.3 °C -20.2 °C 34107.2 hPa NW 2.6 km/h 12.9 km/h 89 % 0 mm
12:30 -19.1 °C -20.1 °C 34120.7 hPa Calm   2.6 km/h 88 % 0 mm
12:45 -19.1 °C -19.9 °C 34120.7 hPa Calm   2.6 km/h 90 % 0 mm
13:00 -19.1 °C -20.1 °C 34130.9 hPa North 2.6 km/h 12.9 km/h 88 % 0 mm
13:15 -19.2 °C -20.1 °C 34130.9 hPa NW 2.6 km/h 12.9 km/h 88 % 0 mm
13:30 -19.1 °C -20.2 °C 34130.9 hPa NNW 2.6 km/h 5.1 km/h 87 % 0 mm
13:45 -19.1 °C -20.1 °C 34130.9 hPa Calm   10.3 km/h 87 % 0 mm
14:00 -19.1 °C -20.1 °C 34144.4 hPa Calm   10.3 km/h 87 % 0 mm
14:15 -19 °C -19.9 °C 34144.4 hPa Calm   5.1 km/h 88 % 0 mm
14:30 -19 °C -20.1 °C 34144.4 hPa Calm   5.1 km/h 86 % 0 mm
14:45 -19 °C -20.1 °C 34144.4 hPa Calm   5.1 km/h 86 % 0 mm
15:00 -19.1 °C -20.2 °C 34154.6 hPa Calm   7.7 km/h 86 % 0 mm
15:15 -19.1 °C -20.3 °C 34164.7 hPa Calm   5.1 km/h 84 % 0 mm
15:30 -19.1 °C -20.3 °C 34164.7 hPa Calm   5.1 km/h 85 % 0 mm
15:45 -19.1 °C -20.3 °C 34178.3 hPa Calm   2.6 km/h 85 % 0 mm
16:00 -19.1 °C -20.3 °C 34178.3 hPa Calm   5.1 km/h 85 % 0 mm
16:15 -19.1 °C -20.2 °C 34188.4 hPa Calm   7.7 km/h 86 % 0 mm
16:30 -19.1 °C -20.3 °C 34188.4 hPa NNE 2.6 km/h 7.7 km/h 86 % 0 mm
16:45 -19.3 °C -20.4 °C 34198.6 hPa NNW 2.6 km/h 7.7 km/h 85 % 0 mm
17:00 -19.4 °C -20.6 °C 34198.6 hPa Calm   5.1 km/h 86 % 0 mm
17:15 -19.6 °C -20.7 °C 34212.1 hPa Calm   2.6 km/h 86 % 0 mm
17:30 -19.6 °C -20.7 °C 34212.1 hPa Calm     86 % 0 mm
17:45 -19.7 °C -20.8 °C 34222.3 hPa Calm     86 % 0 mm
18:00 -19.7 °C -20.7 °C 34222.3 hPa Calm     87 % 0 mm
18:15 -19.7 °C -20.8 °C 34222.3 hPa Calm   5.1 km/h 87 % 0 mm
18:30 -19.9 °C -20.8 °C 34235.8 hPa Calm   5.1 km/h 88 % 0 mm
18:45 -20.1 °C -20.9 °C 34246 hPa NW 2.6 km/h 12.9 km/h 89 % 0 mm
19:00 -20.1 °C -20.9 °C 34246 hPa NW 2.6 km/h 12.9 km/h 89 % 0 mm
19:15 -20.3 °C -21.1 °C 34246 hPa Calm   7.7 km/h 89 % 0 mm
19:30 -20.5 °C -21.3 °C 34246 hPa NW 2.6 km/h 7.7 km/h 90 % 0 mm
19:45 -20.7 °C -21.4 °C 34256.2 hPa Calm   7.7 km/h 91 % 0 mm
20:00 -20.7 °C -21.3 °C 34256.2 hPa NNW 2.6 km/h 10.3 km/h 92 % 0 mm
20:15 -20.6 °C -21.2 °C 34256.2 hPa Calm     92 % 0 mm
20:30 -20.6 °C -21.2 °C 34269.7 hPa Calm     92 % 0 mm
20:45 -20.5 °C -21.1 °C 34269.7 hPa Calm   2.6 km/h 92 % 0 mm
21:00 -20.4 °C -21.1 °C 34269.7 hPa Calm   12.9 km/h 92 % 0 mm
21:15 -20.4 °C -21 °C 34279.9 hPa Calm   5.1 km/h 92 % 0 mm
21:30 -20.3 °C -20.9 °C 34279.9 hPa Calm     92 % 0 mm
21:45 -20.3 °C -20.9 °C 34293.4 hPa Calm   7.7 km/h 92 % 0 mm
22:00 -20.3 °C -20.9 °C 34293.4 hPa Calm   5.1 km/h 92 % 0 mm
22:15 -20.2 °C -20.8 °C 34303.6 hPa Calm   5.1 km/h 92 % 0 mm
22:30 -20.2 °C -20.9 °C 34303.6 hPa Calm   2.6 km/h 91 % 0 mm
22:45 -20.2 °C -21 °C 34303.6 hPa Calm   2.6 km/h 90 % 0 mm
23:00 -20.3 °C -21.1 °C 34313.7 hPa Calm     89 % 0 mm
23:15 -20.3 °C -21.1 °C 34313.7 hPa Calm     89 % 0 mm
23:30 -20.3 °C -21.2 °C 34313.7 hPa Calm     88 % 0 mm
23:45 -20.3 °C -21.2 °C 34313.7 hPa Calm     88 % 0 mm
Esan sääasema
Terveisin Weather Underground - 2.75 mb

Alkuperäinen skripti  Jim McMurry - jmcmurry@mwt.net Sovitettu myös templatelle  Wim van der Kuil - Leuven-Template.eu

Laitteet joita käytämme:

Sääasema
Davis VP2

Sääasemaohjelma
Cumulus

Sääaseman tietokone
Asus EeePC

Palveluntarjoaja
Suncomet

Davis VP2

Cumulus

Asus EeePC

Suncomet